sensor_id;sensor_type;location;lat;lon;timestamp;temperature;humidity
35645;DHT22;21764;52.042;6.830;2022-09-09T00:04:34;15.70;99.90
35645;DHT22;21764;52.042;6.830;2022-09-09T00:09:47;15.70;99.90
35645;DHT22;21764;52.042;6.830;2022-09-09T00:15:04;15.70;99.90
35645;DHT22;21764;52.042;6.830;2022-09-09T00:25:26;15.70;99.90
35645;DHT22;21764;52.042;6.830;2022-09-09T00:30:33;15.70;99.90
35645;DHT22;21764;52.042;6.830;2022-09-09T00:35:38;15.50;99.90
35645;DHT22;21764;52.042;6.830;2022-09-09T00:51:44;15.50;99.90
35645;DHT22;21764;52.042;6.830;2022-09-09T00:57:03;15.30;99.90
35645;DHT22;21764;52.042;6.830;2022-09-09T01:02:28;15.10;99.90
35645;DHT22;21764;52.042;6.830;2022-09-09T01:07:29;15.10;99.90
35645;DHT22;21764;52.042;6.830;2022-09-09T01:12:49;14.90;99.90
35645;DHT22;21764;52.042;6.830;2022-09-09T01:18:00;14.70;99.90
35645;DHT22;21764;52.042;6.830;2022-09-09T01:23:19;14.60;99.90
35645;DHT22;21764;52.042;6.830;2022-09-09T01:28:27;14.60;99.90
35645;DHT22;21764;52.042;6.830;2022-09-09T01:33:28;14.50;99.90
35645;DHT22;21764;52.042;6.830;2022-09-09T01:38:30;14.50;99.90
35645;DHT22;21764;52.042;6.830;2022-09-09T01:43:32;14.40;99.90
35645;DHT22;21764;52.042;6.830;2022-09-09T01:48:33;14.40;99.90
35645;DHT22;21764;52.042;6.830;2022-09-09T01:53:33;14.40;99.90
35645;DHT22;21764;52.042;6.830;2022-09-09T01:58:47;14.40;99.90
35645;DHT22;21764;52.042;6.830;2022-09-09T02:03:53;14.20;99.90
35645;DHT22;21764;52.042;6.830;2022-09-09T02:08:59;14.10;99.90
35645;DHT22;21764;52.042;6.830;2022-09-09T02:14:08;14.30;99.90
35645;DHT22;21764;52.042;6.830;2022-09-09T02:24:26;14.10;99.90
35645;DHT22;21764;52.042;6.830;2022-09-09T02:29:34;14.00;99.90
35645;DHT22;21764;52.042;6.830;2022-09-09T02:34:39;14.00;99.90
35645;DHT22;21764;52.042;6.830;2022-09-09T02:39:40;14.10;99.90
35645;DHT22;21764;52.042;6.830;2022-09-09T02:44:41;14.10;99.90
35645;DHT22;21764;52.042;6.830;2022-09-09T02:49:58;14.00;99.90
35645;DHT22;21764;52.042;6.830;2022-09-09T02:55:24;14.10;99.90
35645;DHT22;21764;52.042;6.830;2022-09-09T03:00:30;14.10;99.90
35645;DHT22;21764;52.042;6.830;2022-09-09T03:05:30;14.30;99.90
35645;DHT22;21764;52.042;6.830;2022-09-09T03:10:32;14.30;99.90
35645;DHT22;21764;52.042;6.830;2022-09-09T03:15:33;14.20;99.90
35645;DHT22;21764;52.042;6.830;2022-09-09T03:20:34;14.20;99.90
35645;DHT22;21764;52.042;6.830;2022-09-09T03:25:34;14.30;99.90
35645;DHT22;21764;52.042;6.830;2022-09-09T03:30:36;14.20;99.90
35645;DHT22;21764;52.042;6.830;2022-09-09T03:35:36;14.20;99.90
35645;DHT22;21764;52.042;6.830;2022-09-09T03:40:37;14.30;99.90
35645;DHT22;21764;52.042;6.830;2022-09-09T03:45:37;14.20;99.90
35645;DHT22;21764;52.042;6.830;2022-09-09T03:50:38;14.20;99.90
35645;DHT22;21764;52.042;6.830;2022-09-09T03:55:39;14.10;99.90
35645;DHT22;21764;52.042;6.830;2022-09-09T04:00:42;14.20;99.90
35645;DHT22;21764;52.042;6.830;2022-09-09T04:05:42;14.00;99.90
35645;DHT22;21764;52.042;6.830;2022-09-09T04:10:45;14.00;99.90
35645;DHT22;21764;52.042;6.830;2022-09-09T04:15:54;14.00;99.90
35645;DHT22;21764;52.042;6.830;2022-09-09T04:20:55;14.10;99.90
35645;DHT22;21764;52.042;6.830;2022-09-09T04:26:00;14.00;99.90
35645;DHT22;21764;52.042;6.830;2022-09-09T04:31:06;14.10;99.90
35645;DHT22;21764;52.042;6.830;2022-09-09T04:36:07;14.00;99.90
35645;DHT22;21764;52.042;6.830;2022-09-09T04:41:10;14.10;99.90
35645;DHT22;21764;52.042;6.830;2022-09-09T04:46:11;14.40;99.90
35645;DHT22;21764;52.042;6.830;2022-09-09T04:51:13;14.50;99.90
35645;DHT22;21764;52.042;6.830;2022-09-09T04:56:16;14.50;99.90
35645;DHT22;21764;52.042;6.830;2022-09-09T05:01:19;14.70;99.90
35645;DHT22;21764;52.042;6.830;2022-09-09T05:06:22;14.70;99.90
35645;DHT22;21764;52.042;6.830;2022-09-09T05:11:25;14.70;99.90
35645;DHT22;21764;52.042;6.830;2022-09-09T05:16:26;14.80;99.90
35645;DHT22;21764;52.042;6.830;2022-09-09T05:21:26;15.00;99.90
35645;DHT22;21764;52.042;6.830;2022-09-09T05:26:29;15.10;99.90
35645;DHT22;21764;52.042;6.830;2022-09-09T05:31:30;15.20;99.90
35645;DHT22;21764;52.042;6.830;2022-09-09T05:36:31;15.20;99.90
35645;DHT22;21764;52.042;6.830;2022-09-09T05:41:32;15.40;99.90
35645;DHT22;21764;52.042;6.830;2022-09-09T05:46:33;15.50;99.90
35645;DHT22;21764;52.042;6.830;2022-09-09T05:51:33;15.50;99.90
35645;DHT22;21764;52.042;6.830;2022-09-09T05:56:34;15.60;99.90
35645;DHT22;21764;52.042;6.830;2022-09-09T06:01:36;15.70;99.90
35645;DHT22;21764;52.042;6.830;2022-09-09T06:06:40;16.00;99.90
35645;DHT22;21764;52.042;6.830;2022-09-09T06:11:42;16.10;99.90
35645;DHT22;21764;52.042;6.830;2022-09-09T06:16:43;16.40;99.90
35645;DHT22;21764;52.042;6.830;2022-09-09T06:21:44;16.80;99.90
35645;DHT22;21764;52.042;6.830;2022-09-09T06:26:45;17.00;99.90
35645;DHT22;21764;52.042;6.830;2022-09-09T06:31:45;17.10;99.90
35645;DHT22;21764;52.042;6.830;2022-09-09T06:36:46;17.10;99.90
35645;DHT22;21764;52.042;6.830;2022-09-09T06:41:47;17.30;99.90
35645;DHT22;21764;52.042;6.830;2022-09-09T06:46:48;17.50;99.90
35645;DHT22;21764;52.042;6.830;2022-09-09T06:51:50;17.60;99.90
35645;DHT22;21764;52.042;6.830;2022-09-09T06:56:52;18.10;99.90
35645;DHT22;21764;52.042;6.830;2022-09-09T07:01:53;22.60;99.90
35645;DHT22;21764;52.042;6.830;2022-09-09T07:06:54;28.10;99.90
35645;DHT22;21764;52.042;6.830;2022-09-09T07:11:55;26.70;99.90
35645;DHT22;21764;52.042;6.830;2022-09-09T07:16:58;24.20;99.90
35645;DHT22;21764;52.042;6.830;2022-09-09T07:22:00;21.90;99.90
35645;DHT22;21764;52.042;6.830;2022-09-09T07:27:01;19.80;99.90
35645;DHT22;21764;52.042;6.830;2022-09-09T07:32:03;19.80;99.90
35645;DHT22;21764;52.042;6.830;2022-09-09T07:37:04;24.00;99.90
35645;DHT22;21764;52.042;6.830;2022-09-09T07:42:05;29.70;99.90
35645;DHT22;21764;52.042;6.830;2022-09-09T07:47:07;30.80;95.50
35645;DHT22;21764;52.042;6.830;2022-09-09T07:52:07;31.40;92.10
35645;DHT22;21764;52.042;6.830;2022-09-09T07:57:08;30.30;92.30
35645;DHT22;21764;52.042;6.830;2022-09-09T08:02:09;26.90;96.60
35645;DHT22;21764;52.042;6.830;2022-09-09T08:07:10;23.90;99.90
35645;DHT22;21764;52.042;6.830;2022-09-09T08:12:11;22.90;99.90
35645;DHT22;21764;52.042;6.830;2022-09-09T08:17:13;21.40;99.90
35645;DHT22;21764;52.042;6.830;2022-09-09T08:22:14;20.70;99.90
35645;DHT22;21764;52.042;6.830;2022-09-09T08:27:17;20.90;99.90
35645;DHT22;21764;52.042;6.830;2022-09-09T08:32:17;24.70;99.90
35645;DHT22;21764;52.042;6.830;2022-09-09T08:37:19;23.00;99.90
35645;DHT22;21764;52.042;6.830;2022-09-09T08:42:41;24.70;99.90
35645;DHT22;21764;52.042;6.830;2022-09-09T08:53:02;23.40;99.90
35645;DHT22;21764;52.042;6.830;2022-09-09T08:58:16;24.30;99.90
35645;DHT22;21764;52.042;6.830;2022-09-09T09:08:52;29.30;95.40
35645;DHT22;21764;52.042;6.830;2022-09-09T09:14:03;32.30;84.20
35645;DHT22;21764;52.042;6.830;2022-09-09T09:19:10;35.10;75.10
35645;DHT22;21764;52.042;6.830;2022-09-09T09:24:41;31.60;79.70
35645;DHT22;21764;52.042;6.830;2022-09-09T09:29:48;29.20;82.80
35645;DHT22;21764;52.042;6.830;2022-09-09T09:34:58;27.40;92.50
35645;DHT22;21764;52.042;6.830;2022-09-09T09:40:14;24.80;94.30
35645;DHT22;21764;52.042;6.830;2022-09-09T09:45:35;25.20;94.20
35645;DHT22;21764;52.042;6.830;2022-09-09T09:50:54;26.00;93.50
35645;DHT22;21764;52.042;6.830;2022-09-09T09:56:15;24.80;95.20
35645;DHT22;21764;52.042;6.830;2022-09-09T10:01:28;25.10;96.20
35645;DHT22;21764;52.042;6.830;2022-09-09T10:06:36;23.80;98.60
35645;DHT22;21764;52.042;6.830;2022-09-09T10:11:48;23.80;98.20
35645;DHT22;21764;52.042;6.830;2022-09-09T10:17:08;23.30;99.10
35645;DHT22;21764;52.042;6.830;2022-09-09T10:27:43;24.10;99.40
35645;DHT22;21764;52.042;6.830;2022-09-09T10:33:02;30.40;91.90
35645;DHT22;21764;52.042;6.830;2022-09-09T11:00:19;24.30;96.00
35645;DHT22;21764;52.042;6.830;2022-09-09T11:05:29;25.30;94.10
35645;DHT22;21764;52.042;6.830;2022-09-09T11:11:02;23.70;95.80
35645;DHT22;21764;52.042;6.830;2022-09-09T11:16:35;23.10;97.70
35645;DHT22;21764;52.042;6.830;2022-09-09T11:21:49;22.30;99.10
35645;DHT22;21764;52.042;6.830;2022-09-09T11:26:57;23.10;98.80
35645;DHT22;21764;52.042;6.830;2022-09-09T11:32:16;23.00;98.20
35645;DHT22;21764;52.042;6.830;2022-09-09T11:37:49;22.80;99.00
35645;DHT22;21764;52.042;6.830;2022-09-09T11:48:31;22.10;99.90
35645;DHT22;21764;52.042;6.830;2022-09-09T11:53:34;21.90;99.90
35645;DHT22;21764;52.042;6.830;2022-09-09T11:58:59;21.70;99.90
35645;DHT22;21764;52.042;6.830;2022-09-09T12:14:43;23.10;99.90
35645;DHT22;21764;52.042;6.830;2022-09-09T12:20:14;22.20;99.90
35645;DHT22;21764;52.042;6.830;2022-09-09T12:35:57;21.50;99.90
35645;DHT22;21764;52.042;6.830;2022-09-09T12:41:01;22.40;99.90
35645;DHT22;21764;52.042;6.830;2022-09-09T12:46:06;21.50;99.90
35645;DHT22;21764;52.042;6.830;2022-09-09T12:51:30;20.70;99.90
35645;DHT22;21764;52.042;6.830;2022-09-09T12:56:33;21.10;99.90
35645;DHT22;21764;52.042;6.830;2022-09-09T13:01:36;21.60;99.90
35645;DHT22;21764;52.042;6.830;2022-09-09T13:06:36;21.30;99.90
35645;DHT22;21764;52.042;6.830;2022-09-09T13:11:42;20.90;99.90
35645;DHT22;21764;52.042;6.830;2022-09-09T13:16:58;21.30;99.90
35645;DHT22;21764;52.042;6.830;2022-09-09T13:21:59;21.10;99.90
35645;DHT22;21764;52.042;6.830;2022-09-09T13:27:03;21.20;99.90
35645;DHT22;21764;52.042;6.830;2022-09-09T13:32:16;20.80;99.90
35645;DHT22;21764;52.042;6.830;2022-09-09T13:37:33;20.40;99.90
35645;DHT22;21764;52.042;6.830;2022-09-09T13:42:40;20.70;99.90
35645;DHT22;21764;52.042;6.830;2022-09-09T13:47:42;20.90;99.90
35645;DHT22;21764;52.042;6.830;2022-09-09T13:52:43;20.60;99.90
35645;DHT22;21764;52.042;6.830;2022-09-09T13:57:54;20.90;99.90
35645;DHT22;21764;52.042;6.830;2022-09-09T14:02:56;20.80;99.90
35645;DHT22;21764;52.042;6.830;2022-09-09T14:07:57;21.30;99.90
35645;DHT22;21764;52.042;6.830;2022-09-09T14:12:58;22.00;99.90
35645;DHT22;21764;52.042;6.830;2022-09-09T14:17:59;21.20;99.90
35645;DHT22;21764;52.042;6.830;2022-09-09T14:22:59;20.70;99.90
35645;DHT22;21764;52.042;6.830;2022-09-09T14:28:00;21.30;99.90
35645;DHT22;21764;52.042;6.830;2022-09-09T14:33:02;22.40;99.90
35645;DHT22;21764;52.042;6.830;2022-09-09T14:38:12;21.80;99.90
35645;DHT22;21764;52.042;6.830;2022-09-09T14:43:12;21.20;99.90
35645;DHT22;21764;52.042;6.830;2022-09-09T14:48:15;21.00;99.90
35645;DHT22;21764;52.042;6.830;2022-09-09T14:53:16;21.50;99.90
35645;DHT22;21764;52.042;6.830;2022-09-09T14:58:17;20.80;99.90
35645;DHT22;21764;52.042;6.830;2022-09-09T15:03:17;20.80;99.90
35645;DHT22;21764;52.042;6.830;2022-09-09T15:08:18;20.90;99.90
35645;DHT22;21764;52.042;6.830;2022-09-09T15:13:19;20.30;99.90
35645;DHT22;21764;52.042;6.830;2022-09-09T15:18:30;20.40;99.90
35645;DHT22;21764;52.042;6.830;2022-09-09T15:23:32;20.50;99.90
35645;DHT22;21764;52.042;6.830;2022-09-09T15:28:34;20.50;99.90
35645;DHT22;21764;52.042;6.830;2022-09-09T15:33:38;19.90;99.90
35645;DHT22;21764;52.042;6.830;2022-09-09T15:38:39;19.70;99.90
35645;DHT22;21764;52.042;6.830;2022-09-09T15:43:46;19.60;99.90
35645;DHT22;21764;52.042;6.830;2022-09-09T15:48:47;19.70;99.90
35645;DHT22;21764;52.042;6.830;2022-09-09T15:53:54;19.50;99.90
35645;DHT22;21764;52.042;6.830;2022-09-09T15:58:56;19.70;99.90
35645;DHT22;21764;52.042;6.830;2022-09-09T16:03:58;19.50;99.90
35645;DHT22;21764;52.042;6.830;2022-09-09T16:09:00;19.60;99.90
35645;DHT22;21764;52.042;6.830;2022-09-09T16:14:03;19.50;99.90
35645;DHT22;21764;52.042;6.830;2022-09-09T16:19:06;19.50;99.90
35645;DHT22;21764;52.042;6.830;2022-09-09T16:24:09;19.20;99.90
35645;DHT22;21764;52.042;6.830;2022-09-09T16:29:11;19.20;99.90
35645;DHT22;21764;52.042;6.830;2022-09-09T16:34:12;19.20;99.90
35645;DHT22;21764;52.042;6.830;2022-09-09T16:39:16;19.20;99.90
35645;DHT22;21764;52.042;6.830;2022-09-09T16:44:18;18.90;99.90
35645;DHT22;21764;52.042;6.830;2022-09-09T16:49:19;18.50;99.90
35645;DHT22;21764;52.042;6.830;2022-09-09T16:54:20;18.20;99.90
35645;DHT22;21764;52.042;6.830;2022-09-09T16:59:42;18.10;99.90
35645;DHT22;21764;52.042;6.830;2022-09-09T17:04:45;18.30;99.90
35645;DHT22;21764;52.042;6.830;2022-09-09T17:10:04;17.90;99.90
35645;DHT22;21764;52.042;6.830;2022-09-09T17:15:13;17.80;99.90
35645;DHT22;21764;52.042;6.830;2022-09-09T17:20:28;17.50;99.90
35645;DHT22;21764;52.042;6.830;2022-09-09T17:25:32;17.40;99.90
35645;DHT22;21764;52.042;6.830;2022-09-09T17:30:44;17.30;99.90
35645;DHT22;21764;52.042;6.830;2022-09-09T17:35:45;17.10;99.90
35645;DHT22;21764;52.042;6.830;2022-09-09T17:40:45;17.00;99.90
35645;DHT22;21764;52.042;6.830;2022-09-09T17:45:46;16.90;99.90
35645;DHT22;21764;52.042;6.830;2022-09-09T17:50:47;16.80;99.90
35645;DHT22;21764;52.042;6.830;2022-09-09T17:55:48;16.90;99.90
35645;DHT22;21764;52.042;6.830;2022-09-09T18:00:49;17.00;99.90
35645;DHT22;21764;52.042;6.830;2022-09-09T18:05:50;17.40;99.90
35645;DHT22;21764;52.042;6.830;2022-09-09T18:10:52;17.70;99.90
35645;DHT22;21764;52.042;6.830;2022-09-09T18:15:55;17.40;99.90
35645;DHT22;21764;52.042;6.830;2022-09-09T18:21:01;17.00;99.90
35645;DHT22;21764;52.042;6.830;2022-09-09T18:26:14;17.00;99.90
35645;DHT22;21764;52.042;6.830;2022-09-09T18:31:16;16.90;99.90
35645;DHT22;21764;52.042;6.830;2022-09-09T18:36:20;16.60;99.90
35645;DHT22;21764;52.042;6.830;2022-09-09T18:41:23;16.40;99.90
35645;DHT22;21764;52.042;6.830;2022-09-09T18:46:28;16.30;99.90
35645;DHT22;21764;52.042;6.830;2022-09-09T18:51:29;16.10;99.90
35645;DHT22;21764;52.042;6.830;2022-09-09T18:56:30;16.00;99.90
35645;DHT22;21764;52.042;6.830;2022-09-09T19:01:31;16.00;99.90
35645;DHT22;21764;52.042;6.830;2022-09-09T19:06:35;16.00;99.90
35645;DHT22;21764;52.042;6.830;2022-09-09T19:11:38;16.20;99.90
35645;DHT22;21764;52.042;6.830;2022-09-09T19:16:40;16.10;99.90
35645;DHT22;21764;52.042;6.830;2022-09-09T19:21:41;15.90;99.90
35645;DHT22;21764;52.042;6.830;2022-09-09T19:26:47;15.90;99.90
35645;DHT22;21764;52.042;6.830;2022-09-09T19:31:49;15.90;99.90
35645;DHT22;21764;52.042;6.830;2022-09-09T19:36:50;15.80;99.90
35645;DHT22;21764;52.042;6.830;2022-09-09T19:41:51;15.80;99.90
35645;DHT22;21764;52.042;6.830;2022-09-09T19:46:52;15.60;99.90
35645;DHT22;21764;52.042;6.830;2022-09-09T19:51:53;15.60;99.90
35645;DHT22;21764;52.042;6.830;2022-09-09T19:56:55;15.60;99.90
35645;DHT22;21764;52.042;6.830;2022-09-09T20:01:58;15.60;99.90
35645;DHT22;21764;52.042;6.830;2022-09-09T20:06:59;15.40;99.90
35645;DHT22;21764;52.042;6.830;2022-09-09T20:12:03;15.40;99.90
35645;DHT22;21764;52.042;6.830;2022-09-09T20:17:04;15.40;99.90
35645;DHT22;21764;52.042;6.830;2022-09-09T20:22:05;15.50;99.90
35645;DHT22;21764;52.042;6.830;2022-09-09T20:27:07;15.40;99.90
35645;DHT22;21764;52.042;6.830;2022-09-09T20:32:08;15.40;99.90
35645;DHT22;21764;52.042;6.830;2022-09-09T20:37:09;15.40;99.90
35645;DHT22;21764;52.042;6.830;2022-09-09T20:42:10;15.40;99.90
35645;DHT22;21764;52.042;6.830;2022-09-09T20:47:12;15.50;99.90
35645;DHT22;21764;52.042;6.830;2022-09-09T20:52:13;15.40;99.90
35645;DHT22;21764;52.042;6.830;2022-09-09T20:57:14;15.50;99.90
35645;DHT22;21764;52.042;6.830;2022-09-09T21:02:20;15.50;99.90
35645;DHT22;21764;52.042;6.830;2022-09-09T21:07:21;15.40;99.90
35645;DHT22;21764;52.042;6.830;2022-09-09T21:12:23;15.30;99.90
35645;DHT22;21764;52.042;6.830;2022-09-09T21:17:24;15.20;99.90
35645;DHT22;21764;52.042;6.830;2022-09-09T21:22:24;15.20;99.90
35645;DHT22;21764;52.042;6.830;2022-09-09T21:27:25;15.10;99.90
35645;DHT22;21764;52.042;6.830;2022-09-09T21:32:26;15.00;99.90
35645;DHT22;21764;52.042;6.830;2022-09-09T21:37:26;15.00;99.90
35645;DHT22;21764;52.042;6.830;2022-09-09T21:42:27;15.00;99.90
35645;DHT22;21764;52.042;6.830;2022-09-09T21:47:28;14.90;99.90
35645;DHT22;21764;52.042;6.830;2022-09-09T21:52:29;15.00;99.90
35645;DHT22;21764;52.042;6.830;2022-09-09T21:57:29;15.10;99.90
35645;DHT22;21764;52.042;6.830;2022-09-09T22:02:30;15.10;99.90
35645;DHT22;21764;52.042;6.830;2022-09-09T22:07:33;15.20;99.90
35645;DHT22;21764;52.042;6.830;2022-09-09T22:12:35;15.20;99.90
35645;DHT22;21764;52.042;6.830;2022-09-09T22:17:36;15.10;99.90
35645;DHT22;21764;52.042;6.830;2022-09-09T22:22:37;15.20;99.90
35645;DHT22;21764;52.042;6.830;2022-09-09T22:27:38;15.00;99.90
35645;DHT22;21764;52.042;6.830;2022-09-09T22:32:39;14.90;99.90
35645;DHT22;21764;52.042;6.830;2022-09-09T22:37:40;14.90;99.90
35645;DHT22;21764;52.042;6.830;2022-09-09T22:42:41;14.90;99.90
35645;DHT22;21764;52.042;6.830;2022-09-09T22:47:42;14.80;99.90
35645;DHT22;21764;52.042;6.830;2022-09-09T22:52:43;14.80;99.90
35645;DHT22;21764;52.042;6.830;2022-09-09T22:57:44;14.80;99.90
35645;DHT22;21764;52.042;6.830;2022-09-09T23:02:45;14.90;99.90
35645;DHT22;21764;52.042;6.830;2022-09-09T23:07:49;15.00;99.90
35645;DHT22;21764;52.042;6.830;2022-09-09T23:12:52;14.90;99.90
35645;DHT22;21764;52.042;6.830;2022-09-09T23:17:53;14.80;99.90
35645;DHT22;21764;52.042;6.830;2022-09-09T23:22:54;14.70;99.90
35645;DHT22;21764;52.042;6.830;2022-09-09T23:27:55;14.70;99.90
35645;DHT22;21764;52.042;6.830;2022-09-09T23:32:56;14.70;99.90
35645;DHT22;21764;52.042;6.830;2022-09-09T23:37:57;14.60;99.90
35645;DHT22;21764;52.042;6.830;2022-09-09T23:42:57;14.70;99.90
35645;DHT22;21764;52.042;6.830;2022-09-09T23:48:00;14.70;99.90
35645;DHT22;21764;52.042;6.830;2022-09-09T23:53:00;14.50;99.90
35645;DHT22;21764;52.042;6.830;2022-09-09T23:58:02;14.50;99.90
